Time;durP1;ratioP1;P1;durP2;ratioP2;P2;SDS_P1;SDS_P2;PMS_P1;PMS_P2;Temp;Humidity;BMP_temperature;BMP_pressure;BME280_temperature;BME280_humidity;BME280_pressure;Samples;Min_cycle;Max_cycle;Signal;HPM_P1;HPM_P2
2022/03/13 00:01:42;;;;;;;13.52;6.90;;;;;;;2.28;45.18;101873.50;4929911;29;20039;-77
2022/03/13 00:04:11;;;;;;;13.18;6.93;;;;;;;2.29;45.39;101870.00;4945007;29;20059;-79
2022/03/13 00:06:37;;;;;;;12.23;6.45;;;;;;;2.24;45.36;101856.41;4931964;29;20467;-78
2022/03/13 00:09:05;;;;;;;15.25;6.35;;;;;;;2.18;45.79;101854.06;4931112;29;20035;-77
2022/03/13 00:11:31;;;;;;;12.80;6.47;;;;;;;2.14;45.70;101855.13;4948450;29;20069;-80
2022/03/13 00:13:58;;;;;;;16.77;7.03;;;;;;;2.17;45.56;101862.75;4934789;29;20042;-76
2022/03/13 00:16:24;;;;;;;11.40;6.57;;;;;;;2.25;45.21;101852.06;4945891;29;20035;-78
2022/03/13 00:18:50;;;;;;;16.77;6.63;;;;;;;2.14;45.96;101849.94;4933215;29;20039;-80
2022/03/13 00:21:19;;;;;;;11.27;6.47;;;;;;;2.11;46.17;101857.81;4916246;29;20044;-79
2022/03/13 00:23:46;;;;;;;15.80;7.03;;;;;;;2.16;45.89;101850.72;4931796;29;20497;-79
2022/03/13 00:26:15;;;;;;;12.80;6.85;;;;;;;2.07;46.21;101851.09;4924672;28;20035;-79
2022/03/13 00:28:42;;;;;;;13.77;7.00;;;;;;;2.05;46.14;101840.78;4937195;29;20038;-78
2022/03/13 00:31:12;;;;;;;13.15;6.57;;;;;;;2.11;45.99;101850.06;4945174;29;20035;-81
2022/03/13 00:33:38;;;;;;;15.48;6.88;;;;;;;2.05;46.28;101842.56;4934310;29;20031;-80
2022/03/13 00:36:04;;;;;;;14.40;7.00;;;;;;;1.93;46.76;101842.16;4933339;28;20036;-79
2022/03/13 00:38:29;;;;;;;13.80;6.53;;;;;;;1.80;46.97;101837.56;4938414;29;20042;-79
2022/03/13 00:40:57;;;;;;;13.88;7.13;;;;;;;1.88;46.81;101841.50;4931135;29;20047;-78
2022/03/13 00:43:24;;;;;;;15.18;7.13;;;;;;;1.93;46.81;101843.91;4932539;29;20398;-80
2022/03/13 00:45:50;;;;;;;13.18;6.90;;;;;;;1.87;47.15;101844.19;4932989;29;20541;-79
2022/03/13 00:48:16;;;;;;;16.00;7.38;;;;;;;1.83;47.20;101863.28;4932916;29;20777;-78
2022/03/13 00:50:43;;;;;;;11.55;6.32;;;;;;;1.74;46.92;101849.84;4950593;28;20038;-79
2022/03/13 00:53:09;;;;;;;15.85;6.97;;;;;;;1.67;47.37;101838.06;4950393;28;20056;-80
2022/03/13 00:55:34;;;;;;;12.80;6.95;;;;;;;1.70;46.98;101844.88;4933618;28;20067;-80
2022/03/13 00:58:00;;;;;;;14.68;6.97;;;;;;;1.70;47.43;101853.47;4933639;29;20137;-79
2022/03/13 01:00:27;;;;;;;12.93;6.57;;;;;;;1.71;47.45;101838.78;4951491;28;20089;-79
2022/03/13 01:02:52;;;;;;;13.70;7.15;;;;;;;1.66;47.64;101851.06;4930222;29;20069;-79
2022/03/13 01:05:26;;;;;;;13.95;7.53;;;;;;;1.59;47.87;101845.28;4921581;29;20124;-78
2022/03/13 01:07:56;;;;;;;19.55;7.13;;;;;;;1.53;47.71;101841.19;4940250;28;20020;-81
2022/03/13 01:10:23;;;;;;;12.15;7.07;;;;;;;1.52;47.78;101836.09;4939004;29;20047;-79
2022/03/13 01:12:51;;;;;;;15.30;7.35;;;;;;;1.47;47.94;101844.03;4911811;29;20055;-79
2022/03/13 01:15:17;;;;;;;16.50;6.93;;;;;;;1.54;47.78;101836.88;4915284;29;20485;-77
2022/03/13 01:17:43;;;;;;;12.40;6.70;;;;;;;1.46;47.92;101836.34;4947381;29;20035;-79
2022/03/13 01:20:21;;;;;;;13.75;7.28;;;;;;;1.33;48.16;101821.28;4930381;29;20533;-78
2022/03/13 01:22:48;;;;;;;13.95;7.00;;;;;;;1.35;48.17;101840.16;4917736;29;20830;-79
2022/03/13 01:25:14;;;;;;;11.57;6.30;;;;;;;1.30;48.63;101843.84;4930934;29;20066;-79
2022/03/13 01:27:41;;;;;;;13.60;7.38;;;;;;;1.21;48.84;101837.31;4946209;28;20031;-78
2022/03/13 01:30:08;;;;;;;14.77;6.72;;;;;;;1.09;49.44;101837.75;4948508;29;20817;-78
2022/03/13 01:32:34;;;;;;;10.55;6.63;;;;;;;0.92;50.07;101826.34;4948769;29;20028;-77
2022/03/13 01:34:59;;;;;;;15.00;7.30;;;;;;;0.82;50.67;101819.81;4946732;29;20126;-78
2022/03/13 01:37:28;;;;;;;14.55;7.22;;;;;;;0.80;50.68;101833.69;4932600;29;20032;-78
2022/03/13 01:39:55;;;;;;;10.50;6.93;;;;;;;0.71;51.58;101832.28;4947553;29;20047;-79
2022/03/13 01:42:21;;;;;;;14.00;7.35;;;;;;;0.62;51.31;101825.72;4907510;29;21114;-78
2022/03/13 01:44:47;;;;;;;13.18;6.95;;;;;;;0.62;51.77;101817.97;4948557;29;20055;-78
2022/03/13 01:47:14;;;;;;;18.35;7.50;;;;;;;0.58;52.21;101830.16;4935780;29;20035;-79
2022/03/13 01:49:39;;;;;;;13.68;7.13;;;;;;;0.62;51.75;101822.28;4935929;29;20047;-78
2022/03/13 01:52:05;;;;;;;15.25;7.13;;;;;;;0.55;52.08;101834.59;4951778;28;20035;-81
2022/03/13 01:54:31;;;;;;;16.63;7.10;;;;;;;0.48;52.20;101826.22;4918691;29;20122;-80
2022/03/13 01:56:57;;;;;;;16.25;7.20;;;;;;;0.56;51.60;101828.50;4937887;29;20062;-80
2022/03/13 01:59:23;;;;;;;13.48;7.45;;;;;;;0.31;51.92;101795.00;4952362;29;20094;-81
2022/03/13 02:01:48;;;;;;;12.65;7.18;;;;;;;0.47;51.70;101819.38;4937843;29;20513;-80
2022/03/13 02:04:23;;;;;;;15.30;7.00;;;;;;;0.44;51.78;101813.47;4951115;28;20039;-80
2022/03/13 02:06:50;;;;;;;11.13;6.85;;;;;;;0.24;52.65;101803.84;4934989;29;20043;-80
2022/03/13 02:09:15;;;;;;;14.10;7.43;;;;;;;0.01;53.78;101812.41;4935016;29;20040;-79
2022/03/13 02:11:42;;;;;;;15.20;7.03;;;;;;;-0.19;54.07;101816.47;4946736;28;20043;-80
2022/03/13 02:14:11;;;;;;;13.93;7.38;;;;;;;-0.24;54.84;101824.38;4928848;29;20042;-82
2022/03/13 02:16:38;;;;;;;15.15;7.18;;;;;;;-0.41;56.36;101824.91;4951007;29;20050;-81
2022/03/13 02:19:05;;;;;;;13.77;7.28;;;;;;;-0.48;56.27;101810.53;4933048;29;20036;-79
2022/03/13 02:21:39;;;;;;;14.00;7.00;;;;;;;-0.35;55.64;101813.56;4922650;29;20058;-80
2022/03/13 02:24:11;;;;;;;12.30;7.40;;;;;;;-0.42;56.05;101817.22;4950271;29;20121;-80
2022/03/13 02:26:37;;;;;;;15.77;7.57;;;;;;;-0.42;56.23;101817.22;4930042;29;20493;-80
2022/03/13 02:29:03;;;;;;;16.17;7.97;;;;;;;-0.44;56.19;101809.53;4950257;29;20571;-79
2022/03/13 02:31:36;;;;;;;14.35;7.72;;;;;;;-0.31;55.27;101814.31;4950485;29;20753;-81
2022/03/13 02:34:08;;;;;;;14.27;7.57;;;;;;;-0.41;56.24;101819.75;4934101;29;20134;-80
2022/03/13 02:36:36;;;;;;;14.27;7.18;;;;;;;-0.40;55.96;101820.59;4950414;28;20040;-79
2022/03/13 02:39:06;;;;;;;15.35;8.00;;;;;;;-0.35;55.56;101815.31;4950214;29;20094;-80
2022/03/13 02:41:32;;;;;;;16.25;7.80;;;;;;;-0.33;56.24;101808.38;4950434;28;20039;-80
2022/03/13 02:43:58;;;;;;;16.05;8.25;;;;;;;-0.38;55.61;101800.75;4934696;28;20062;-80
2022/03/13 02:46:51;;;;;;;11.98;7.75;;;;;;;-0.31;55.61;101801.41;4917148;29;20067;-80
2022/03/13 02:49:19;;;;;;;15.65;7.90;;;;;;;-0.28;55.25;101804.75;4934809;29;20038;-79
2022/03/13 02:51:47;;;;;;;15.45;7.57;;;;;;;-0.28;55.42;101809.06;4913587;29;20127;-80
2022/03/13 02:54:14;;;;;;;14.05;7.85;;;;;;;-0.27;55.29;101813.31;4949715;29;20057;-79
2022/03/13 02:56:40;;;;;;;14.70;8.32;;;;;;;-0.28;55.28;101814.22;4950154;29;20110;-80
2022/03/13 02:59:06;;;;;;;14.10;8.18;;;;;;;-0.34;54.69;101801.50;4950668;29;20102;-80
2022/03/13 03:01:31;;;;;;;13.43;7.88;;;;;;;-0.36;54.20;101801.56;4950294;28;20048;-79
2022/03/13 03:04:00;;;;;;;17.13;8.20;;;;;;;-0.34;54.59;101804.09;4949604;28;20161;-80
2022/03/13 03:06:28;;;;;;;15.93;8.10;;;;;;;-0.37;54.03;101810.19;4937456;28;20056;-82
2022/03/13 03:08:54;;;;;;;13.18;7.45;;;;;;;-0.31;53.93;101816.88;4934834;29;20502;-79
2022/03/13 03:11:20;;;;;;;13.98;7.95;;;;;;;-0.43;53.61;101797.50;4934600;29;20091;-79
2022/03/13 03:13:45;;;;;;;14.82;8.40;;;;;;;-0.35;53.59;101816.16;4913889;29;20036;-80
2022/03/13 03:16:11;;;;;;;16.25;8.27;;;;;;;-0.31;53.50;101811.72;4936088;29;20519;-80
2022/03/13 03:18:37;;;;;;;15.48;7.60;;;;;;;-0.38;53.86;101805.91;4946931;29;20503;-80
2022/03/13 03:21:03;;;;;;;13.73;8.63;;;;;;;-0.32;53.83;101810.03;4948308;29;20036;-80
2022/03/13 03:23:28;;;;;;;14.05;7.88;;;;;;;-0.41;53.94;101814.59;4949695;29;20039;-80
2022/03/13 03:25:54;;;;;;;13.57;7.82;;;;;;;-0.37;54.23;101822.25;4937844;29;20393;-79
2022/03/13 03:28:22;;;;;;;18.00;8.82;;;;;;;-0.39;54.00;101824.88;4936398;29;20036;-79
2022/03/13 03:30:48;;;;;;;14.95;8.82;;;;;;;-0.35;54.22;101817.88;4947965;28;20126;-80
2022/03/13 03:33:13;;;;;;;14.15;8.55;;;;;;;-0.48;54.10;101814.84;4936310;29;20115;-79
2022/03/13 03:35:39;;;;;;;16.17;8.45;;;;;;;-0.39;54.35;101817.13;4925497;29;20035;-80
2022/03/13 03:38:05;;;;;;;17.58;8.38;;;;;;;-0.46;54.38;101806.16;4948876;29;20040;-80
2022/03/13 03:40:33;;;;;;;17.77;9.13;;;;;;;-0.41;54.88;101809.44;4937017;29;20063;-79
2022/03/13 03:43:00;;;;;;;15.40;8.82;;;;;;;-0.46;54.58;101810.50;4917000;29;20110;-79
2022/03/13 03:45:27;;;;;;;17.17;8.88;;;;;;;-0.49;55.17;101813.16;4912094;29;20039;-79
2022/03/13 03:47:53;;;;;;;14.75;9.27;;;;;;;-0.54;55.14;101820.22;4925472;29;20040;-79
2022/03/13 03:50:19;;;;;;;23.95;9.00;;;;;;;-0.54;55.35;101815.06;4949329;29;20039;-79
2022/03/13 03:52:45;;;;;;;20.98;9.48;;;;;;;-0.62;55.01;101799.84;4950148;29;20089;-80
2022/03/13 03:55:12;;;;;;;14.43;8.20;;;;;;;-0.60;55.26;101806.63;4915021;29;20035;-79
2022/03/13 03:57:37;;;;;;;14.55;8.52;;;;;;;-0.67;56.34;101812.03;4940608;29;20035;-79
2022/03/13 04:00:06;;;;;;;18.90;9.57;;;;;;;-0.68;55.96;101816.34;4955752;28;20031;-79
2022/03/13 04:02:39;;;;;;;16.48;8.95;;;;;;;-0.72;56.04;101821.63;4917324;29;20050;-80
2022/03/13 04:05:06;;;;;;;16.70;9.30;;;;;;;-0.77;55.91;101821.78;4909429;29;20122;-81
2022/03/13 04:07:32;;;;;;;18.60;9.27;;;;;;;-0.82;56.43;101828.78;4934644;29;20329;-80
2022/03/13 04:09:58;;;;;;;19.40;8.70;;;;;;;-0.73;55.85;101825.09;4931739;28;20143;-81
2022/03/13 04:12:25;;;;;;;15.63;9.52;;;;;;;-0.79;56.83;101831.28;4975083;23;20517;-75
2022/03/13 04:14:52;;;;;;;16.90;9.63;;;;;;;-0.88;57.06;101824.66;4987043;28;20084;-73
2022/03/13 04:17:18;;;;;;;17.23;8.90;;;;;;;-0.91;56.24;101827.31;4994008;28;20506;-73
2022/03/13 04:19:44;;;;;;;16.63;8.77;;;;;;;-0.92;56.79;101824.78;5000536;28;20102;-76
2022/03/13 04:22:10;;;;;;;19.23;9.40;;;;;;;-0.89;56.50;101820.38;5000193;28;20072;-75
2022/03/13 04:24:35;;;;;;;16.02;9.00;;;;;;;-0.89;57.06;101820.38;4998272;28;20062;-75
2022/03/13 04:27:02;;;;;;;21.02;9.27;;;;;;;-0.91;56.67;101827.31;4981031;28;20034;-75
2022/03/13 04:29:27;;;;;;;17.13;8.98;;;;;;;-0.98;56.23;101816.38;4995130;28;20410;-74
2022/03/13 04:31:54;;;;;;;16.92;9.00;;;;;;;-0.94;56.12;101818.84;4986867;28;20119;-76
2022/03/13 04:34:21;;;;;;;20.63;9.80;;;;;;;-0.98;56.50;101823.25;5002075;28;20046;-76
2022/03/13 04:36:48;;;;;;;21.83;9.85;;;;;;;-0.97;57.15;101824.94;5001248;28;20045;-77
2022/03/13 04:39:14;;;;;;;17.23;9.68;;;;;;;-1.08;57.87;101822.69;4999886;28;20113;-75
2022/03/13 04:41:41;;;;;;;21.52;9.68;;;;;;;-1.07;57.19;101826.13;5004475;28;20784;-75
2022/03/13 04:44:08;;;;;;;19.75;10.60;;;;;;;-0.99;56.79;101827.56;4961367;28;20507;-75
2022/03/13 04:46:34;;;;;;;19.48;9.88;;;;;;;-0.99;56.85;101829.28;4985751;28;20038;-75
2022/03/13 04:49:01;;;;;;;20.52;10.18;;;;;;;-1.09;56.93;101815.00;4995422;28;20034;-74
2022/03/13 04:51:26;;;;;;;19.17;9.85;;;;;;;-1.06;57.21;101813.16;4998791;28;20931;-76
2022/03/13 04:53:52;;;;;;;21.38;9.55;;;;;;;-0.99;56.86;101824.97;4988633;28;20041;-76
2022/03/13 04:56:18;;;;;;;16.85;9.05;;;;;;;-1.00;56.93;101830.16;5005046;28;20065;-76
2022/03/13 04:58:44;;;;;;;16.88;9.02;;;;;;;-0.98;56.64;101820.66;5005445;28;20472;-75
2022/03/13 05:01:10;;;;;;;17.77;9.65;;;;;;;-0.97;56.33;101827.50;5003746;28;20092;-75
2022/03/13 05:03:35;;;;;;;19.48;9.93;;;;;;;-0.96;56.37;101824.06;4990367;28;20038;-75
2022/03/13 05:06:05;;;;;;;20.50;9.90;;;;;;;-1.01;56.25;101819.03;5009590;28;20068;-74
2022/03/13 05:08:33;;;;;;;16.48;9.07;;;;;;;-0.93;56.18;101829.09;5007228;28;20045;-76
2022/03/13 05:10:59;;;;;;;19.17;10.10;;;;;;;-0.96;56.64;101821.50;5010120;28;20045;-76
2022/03/13 05:13:26;;;;;;;19.23;9.88;;;;;;;-1.01;56.66;101825.94;5006282;28;20076;-76
2022/03/13 05:15:52;;;;;;;18.52;9.18;;;;;;;-1.01;56.47;101818.19;4992993;28;20069;-76
2022/03/13 05:18:19;;;;;;;24.08;9.85;;;;;;;-1.06;56.69;101813.16;4998660;28;20587;-76
2022/03/13 05:20:45;;;;;;;17.77;9.30;;;;;;;-1.07;56.54;101819.22;4992328;28;20042;-76
2022/03/13 05:23:11;;;;;;;18.50;9.55;;;;;;;-1.07;56.68;101811.50;4997290;28;20034;-76
2022/03/13 05:25:39;;;;;;;18.55;9.55;;;;;;;-1.09;57.28;101820.13;4989818;28;20124;-76
2022/03/13 05:28:06;;;;;;;15.35;9.23;;;;;;;-1.16;57.07;101803.22;4991209;28;20034;-76
2022/03/13 05:30:32;;;;;;;16.70;9.15;;;;;;;-1.18;56.47;101798.94;5007876;28;20069;-76
2022/03/13 05:32:58;;;;;;;20.88;9.43;;;;;;;-1.09;55.54;101813.28;5008837;28;20032;-76
2022/03/13 05:35:24;;;;;;;19.42;9.07;;;;;;;-1.08;55.49;101807.22;5006858;28;20041;-76
2022/03/13 05:37:51;;;;;;;17.30;9.50;;;;;;;-1.10;55.68;101816.72;4995593;28;20100;-76
2022/03/13 05:40:19;;;;;;;17.73;9.38;;;;;;;-1.06;55.59;101820.91;4979947;28;20106;-76
2022/03/13 05:42:49;;;;;;;17.75;9.65;;;;;;;-1.10;55.84;101818.47;4990491;28;20112;-76
2022/03/13 05:45:20;;;;;;;14.98;9.02;;;;;;;-1.06;55.91;101814.91;5005479;28;20040;-76
2022/03/13 05:47:55;;;;;;;18.17;9.68;;;;;;;-1.03;55.98;101819.97;5025246;28;20487;-75
2022/03/13 05:50:23;;;;;;;16.23;9.50;;;;;;;-1.03;56.06;101819.97;4991805;28;20046;-76
2022/03/13 05:52:49;;;;;;;17.25;9.23;;;;;;;-1.03;56.06;101823.38;4993258;28;20037;-75
2022/03/13 05:55:17;;;;;;;20.75;9.82;;;;;;;-1.09;56.46;101817.56;5007626;28;20042;-76
2022/03/13 05:57:43;;;;;;;16.05;9.05;;;;;;;-1.09;56.33;101828.72;4990086;28;20040;-76
2022/03/13 06:00:13;;;;;;;20.38;9.20;;;;;;;-1.04;55.86;101838.88;5003111;28;20530;-75
2022/03/13 06:02:46;;;;;;;16.50;8.77;;;;;;;-1.03;55.66;101833.69;5008175;28;20058;-74
2022/03/13 06:05:12;;;;;;;16.63;9.43;;;;;;;-0.96;55.31;101831.78;4993488;28;20069;-77
2022/03/13 06:07:39;;;;;;;17.45;9.48;;;;;;;-0.93;55.61;101833.41;5006967;28;20386;-76
2022/03/13 06:10:06;;;;;;;17.25;9.43;;;;;;;-0.91;55.32;101834.22;4978490;28;20037;-77
2022/03/13 06:12:33;;;;;;;15.63;8.73;;;;;;;-0.86;55.24;101840.09;5006719;28;20095;-76
2022/03/13 06:15:00;;;;;;;17.23;9.30;;;;;;;-0.79;55.26;101839.00;5010413;28;20034;-75
2022/03/13 06:17:26;;;;;;;18.85;9.43;;;;;;;-0.77;55.06;101834.66;4991490;28;20038;-76
2022/03/13 06:19:55;;;;;;;17.38;9.00;;;;;;;-0.73;54.78;101825.09;5000550;28;20049;-77
2022/03/13 06:22:25;;;;;;;21.27;9.23;;;;;;;-0.64;54.67;101830.81;5006262;28;20789;-77
2022/03/13 06:24:52;;;;;;;16.02;9.35;;;;;;;-0.52;54.11;101837.31;4995018;28;20395;-76
2022/03/13 06:27:21;;;;;;;16.75;9.55;;;;;;;-0.43;53.35;101842.16;4992859;28;20673;-76
2022/03/13 06:29:47;;;;;;;19.83;8.77;;;;;;;-0.35;52.77;101849.66;5008203;28;20065;-77
2022/03/13 06:32:13;;;;;;;15.48;8.48;;;;;;;-0.24;52.40;101845.00;4991530;28;20120;-76
2022/03/13 06:34:39;;;;;;;16.83;8.75;;;;;;;-0.09;51.97;101853.13;4995470;28;20495;-76
2022/03/13 06:37:05;;;;;;;13.95;8.40;;;;;;;0.02;51.99;101853.63;5019445;28;20042;-76
2022/03/13 06:39:31;;;;;;;18.40;9.68;;;;;;;0.14;51.31;101850.63;5005273;28;20034;-75
2022/03/13 06:41:57;;;;;;;19.63;9.05;;;;;;;0.08;51.99;101853.41;5010404;28;20038;-75
2022/03/13 06:44:23;;;;;;;16.42;8.60;;;;;;;0.14;51.68;101852.38;4997376;28;20096;-76
2022/03/13 06:46:48;;;;;;;17.08;9.73;;;;;;;0.19;51.37;101847.91;5007551;28;20065;-76
2022/03/13 06:49:15;;;;;;;19.25;8.73;;;;;;;0.26;51.22;101857.09;4988750;28;20030;-76
2022/03/13 06:51:41;;;;;;;16.33;8.77;;;;;;;0.37;51.71;101851.56;5006331;28;20040;-76
2022/03/13 06:54:08;;;;;;;17.42;9.10;;;;;;;0.44;51.05;101847.88;4993734;28;20042;-76
2022/03/13 06:56:35;;;;;;;16.58;9.32;;;;;;;0.45;50.75;101844.38;4988785;28;20541;-76
2022/03/13 06:59:04;;;;;;;19.17;9.05;;;;;;;0.48;50.37;101836.53;5002917;28;20109;-74
2022/03/13 07:01:30;;;;;;;15.00;8.57;;;;;;;0.64;50.69;101852.34;4987993;28;20084;-76
2022/03/13 07:03:56;;;;;;;17.77;9.20;;;;;;;0.73;49.94;101853.72;5004586;28;20109;-73
2022/03/13 07:06:21;;;;;;;19.95;9.77;;;;;;;0.82;49.48;101850.81;5002182;28;20165;-76
2022/03/13 07:08:47;;;;;;;16.77;9.00;;;;;;;0.85;49.42;101853.28;5004181;28;20078;-76
2022/03/13 07:11:15;;;;;;;17.10;8.40;;;;;;;0.95;49.71;101854.63;4997696;28;20030;-75
2022/03/13 07:13:43;;;;;;;21.33;9.50;;;;;;;1.03;49.35;101856.91;5004746;28;20091;-76
2022/03/13 07:16:10;;;;;;;15.60;8.38;;;;;;;1.06;47.97;101856.81;5003007;28;20044;-76
2022/03/13 07:18:36;;;;;;;16.40;8.63;;;;;;;1.11;48.38;101852.31;4989830;28;20142;-76
2022/03/13 07:21:02;;;;;;;17.60;8.38;;;;;;;1.19;47.36;101856.34;4978255;28;20040;-76
2022/03/13 07:23:28;;;;;;;15.27;8.63;;;;;;;1.26;47.98;101853.47;4982775;28;20034;-75
2022/03/13 07:25:54;;;;;;;15.88;8.85;;;;;;;1.33;47.71;101859.25;5016898;28;20404;-76
2022/03/13 07:28:20;;;;;;;14.77;8.30;;;;;;;1.38;48.12;101861.66;5004274;28;20033;-75
2022/03/13 07:30:48;;;;;;;15.65;8.25;;;;;;;1.35;46.80;101849.69;5006647;28;20062;-75
2022/03/13 07:33:14;;;;;;;15.80;8.13;;;;;;;1.32;47.10;101852.41;4993861;28;20127;-75
2022/03/13 07:35:39;;;;;;;16.48;8.85;;;;;;;1.43;47.68;101850.25;5004978;28;20262;-76
2022/03/13 07:38:05;;;;;;;16.90;8.30;;;;;;;1.51;47.45;101852.53;5003122;28;20038;-76
2022/03/13 07:40:31;;;;;;;15.57;8.40;;;;;;;1.60;47.02;101851.28;4987977;28;20026;-75
2022/03/13 07:43:02;;;;;;;14.05;8.25;;;;;;;1.72;47.37;101848.22;4983273;28;20042;-75
2022/03/13 07:45:28;;;;;;;15.48;8.13;;;;;;;1.90;46.38;101844.03;4971476;28;20403;-75
2022/03/13 07:47:57;;;;;;;17.15;8.27;;;;;;;1.97;46.70;101853.22;5007019;28;20037;-76
2022/03/13 07:50:30;;;;;;;14.25;8.50;;;;;;;2.00;46.47;101850.53;4974729;28;20077;-75
2022/03/13 07:52:56;;;;;;;13.18;8.02;;;;;;;2.11;45.70;101855.22;5010315;28;20041;-75
2022/03/13 07:55:22;;;;;;;16.33;7.68;;;;;;;2.17;46.18;101844.63;5003415;28;20042;-75
2022/03/13 07:57:49;;;;;;;15.07;7.75;;;;;;;2.12;45.81;101841.41;4988655;28;20045;-76
2022/03/13 08:00:17;;;;;;;17.38;8.30;;;;;;;2.08;45.23;101843.28;4980742;28;20045;-76
2022/03/13 08:02:46;;;;;;;15.32;7.50;;;;;;;2.10;45.49;101846.63;5008558;28;20037;-74
2022/03/13 08:05:18;;;;;;;18.48;7.82;;;;;;;2.30;45.54;101860.50;5005192;28;20122;-76
2022/03/13 08:07:49;;;;;;;17.10;7.60;;;;;;;2.39;45.11;101860.06;4994919;28;20092;-74
2022/03/13 08:10:20;;;;;;;14.68;7.28;;;;;;;2.42;44.95;101853.94;4988419;28;20034;-75
2022/03/13 08:12:46;;;;;;;15.05;7.53;;;;;;;2.41;44.75;101857.41;4990834;28;20042;-75
2022/03/13 08:15:12;;;;;;;12.80;7.22;;;;;;;2.37;44.22;101854.13;5007404;28;20582;-76
2022/03/13 08:17:37;;;;;;;13.68;7.10;;;;;;;2.45;44.14;101852.06;4990537;28;20048;-76
2022/03/13 08:20:04;;;;;;;16.67;8.15;;;;;;;2.45;43.53;101854.66;4990476;28;20390;-76
2022/03/13 08:22:30;;;;;;;14.93;7.57;;;;;;;2.49;44.26;101845.84;5002735;28;20094;-75
2022/03/13 08:24:56;;;;;;;14.40;7.55;;;;;;;2.62;44.21;101851.31;5023633;28;20030;-76
2022/03/13 08:27:23;;;;;;;14.43;7.43;;;;;;;2.70;44.52;101845.78;5009262;28;20050;-75
2022/03/13 08:29:49;;;;;;;15.05;8.20;;;;;;;2.85;44.40;101854.63;5004380;28;20026;-72
2022/03/13 08:32:17;;;;;;;16.45;8.38;;;;;;;2.88;44.23;101854.47;5007143;28;20064;-75
2022/03/13 08:34:45;;;;;;;15.43;8.20;;;;;;;2.91;44.92;101844.81;4991647;28;20104;-74
2022/03/13 08:37:15;;;;;;;13.13;6.72;;;;;;;3.11;43.70;101840.50;5008112;28;20049;-75
2022/03/13 08:39:41;;;;;;;13.02;7.03;;;;;;;3.13;44.04;101841.25;4988688;28;20041;-75
2022/03/13 08:42:07;;;;;;;16.52;7.35;;;;;;;3.10;43.75;101833.59;4989458;28;20042;-74
2022/03/13 08:44:33;;;;;;;11.88;7.53;;;;;;;3.25;44.45;101843.25;4993790;28;20057;-73
2022/03/13 08:46:59;;;;;;;15.73;7.40;;;;;;;3.45;44.45;101849.28;5002343;28;20064;-76
2022/03/13 08:49:25;;;;;;;14.77;8.70;;;;;;;3.59;44.63;101841.66;5002826;28;20092;-75
2022/03/13 08:51:51;;;;;;;17.00;7.40;;;;;;;3.82;44.91;101844.88;5008856;28;20046;-76
2022/03/13 08:54:20;;;;;;;15.85;7.43;;;;;;;3.49;43.46;101846.44;5010564;28;20042;-76
2022/03/13 08:56:48;;;;;;;12.50;7.25;;;;;;;3.53;43.72;101839.34;5004217;28;20492;-74
2022/03/13 08:59:15;;;;;;;14.45;7.60;;;;;;;3.59;44.10;101841.66;5005314;28;20073;-74
2022/03/13 09:01:42;;;;;;;13.35;7.07;;;;;;;3.61;44.03;101844.16;5023739;28;20048;-75
2022/03/13 09:04:07;;;;;;;14.48;7.63;;;;;;;3.79;43.94;101842.44;4992483;28;20069;-75
2022/03/13 09:06:33;;;;;;;16.70;8.65;;;;;;;3.99;44.19;101836.25;4989372;28;20177;-75
2022/03/13 09:08:58;;;;;;;14.68;7.53;;;;;;;4.04;43.05;101840.28;5008408;28;20104;-75
2022/03/13 09:11:24;;;;;;;13.88;7.25;;;;;;;4.01;43.66;101848.25;4998408;28;20038;-76
2022/03/13 09:13:50;;;;;;;13.35;6.65;;;;;;;4.13;43.22;101838.16;5003028;28;20034;-75
2022/03/13 09:16:15;;;;;;;13.02;7.68;;;;;;;4.25;43.30;101848.75;4985688;28;20153;-74
2022/03/13 09:18:41;;;;;;;14.23;7.28;;;;;;;4.20;42.95;101842.97;4990992;28;20119;-76
2022/03/13 09:21:07;;;;;;;15.68;7.50;;;;;;;4.31;42.91;101839.78;4987288;28;20199;-75
2022/03/13 09:23:32;;;;;;;16.58;8.25;;;;;;;4.46;43.22;101838.16;5009699;28;20049;-75
2022/03/13 09:25:58;;;;;;;14.98;7.53;;;;;;;4.56;43.24;101833.31;4993332;28;20053;-75
2022/03/13 09:28:24;;;;;;;14.82;6.93;;;;;;;4.53;42.79;101833.50;4994505;28;20216;-76
2022/03/13 09:30:50;;;;;;;13.75;7.40;;;;;;;4.70;42.30;101832.63;5019210;28;20114;-76
2022/03/13 09:33:16;;;;;;;16.73;8.32;;;;;;;4.85;42.70;101829.19;5006933;28;20495;-77
2022/03/13 09:35:42;;;;;;;12.88;6.93;;;;;;;5.09;42.14;101829.63;4986902;28;20042;-75
2022/03/13 09:38:08;;;;;;;15.68;7.85;;;;;;;5.21;41.97;101823.72;5003240;28;20042;-76
2022/03/13 09:40:34;;;;;;;15.98;7.00;;;;;;;5.14;41.01;101829.34;5006955;28;20030;-75
2022/03/13 09:43:04;;;;;;;16.25;6.82;;;;;;;5.25;40.42;101824.41;5018177;28;20038;-76
2022/03/13 09:45:29;;;;;;;16.27;7.20;;;;;;;5.51;40.85;101822.09;4989006;28;20045;-75
2022/03/13 09:47:55;;;;;;;15.65;7.13;;;;;;;5.59;40.17;101819.88;4993126;28;20037;-74
2022/03/13 09:50:21;;;;;;;13.05;6.47;;;;;;;5.82;40.06;101819.41;4998774;28;20045;-76
2022/03/13 09:52:47;;;;;;;12.15;7.20;;;;;;;5.98;40.00;101821.97;5007487;28;20037;-73
2022/03/13 09:55:15;;;;;;;13.60;6.80;;;;;;;6.06;39.56;101823.31;4987144;28;20038;-75
2022/03/13 09:57:43;;;;;;;17.42;7.13;;;;;;;6.11;38.97;101818.66;4994846;28;20064;-75
2022/03/13 10:00:11;;;;;;;11.30;6.60;;;;;;;6.15;37.79;101820.97;4997308;28;20091;-77
2022/03/13 10:02:41;;;;;;;13.50;6.65;;;;;;;6.38;39.11;101813.56;5008148;28;20038;-74
2022/03/13 10:05:11;;;;;;;14.20;6.88;;;;;;;6.56;38.43;101817.66;5002850;28;20088;-75
2022/03/13 10:07:51;;;;;;;12.25;6.70;;;;;;;6.61;37.27;101820.81;5018432;28;20046;-75
2022/03/13 10:10:17;;;;;;;13.23;6.57;;;;;;;6.74;38.65;101814.84;5000994;28;20439;-77
2022/03/13 10:12:43;;;;;;;12.07;6.43;;;;;;;6.86;37.34;101816.69;4989007;28;20084;-77
2022/03/13 10:15:09;;;;;;;11.82;6.07;;;;;;;6.70;35.98;101808.13;5001626;28;20031;-74
2022/03/13 10:17:37;;;;;;;12.68;6.72;;;;;;;6.73;36.25;101800.13;4999562;23;20641;-77
2022/03/13 10:20:14;;;;;;;11.70;6.78;;;;;;;6.83;36.26;101812.47;4987048;28;20042;-79
2022/03/13 10:22:40;;;;;;;11.07;6.53;;;;;;;6.97;36.78;101816.84;5016804;28;20049;-78
2022/03/13 10:25:06;;;;;;;12.73;6.88;;;;;;;6.96;35.85;101809.13;4993857;28;20516;-76
2022/03/13 10:27:33;;;;;;;13.98;6.75;;;;;;;6.87;35.25;101815.75;4988751;28;20078;-79
2022/03/13 10:30:05;;;;;;;10.70;6.25;;;;;;;6.98;35.55;101820.28;4998019;28;20054;-77
2022/03/13 10:32:31;;;;;;;13.60;6.72;;;;;;;7.13;36.08;101813.28;5001489;28;20049;-76
2022/03/13 10:34:57;;;;;;;13.75;6.00;;;;;;;7.13;34.77;101815.88;4996970;28;20034;-76
2022/03/13 10:37:38;;;;;;;14.50;6.85;;;;;;;7.18;34.65;101811.22;4961423;28;20045;-78
2022/03/13 10:40:09;;;;;;;11.77;6.25;;;;;;;7.41;35.13;101818.38;4985104;28;20035;-78
2022/03/13 10:42:43;;;;;;;11.48;6.80;;;;;;;7.57;34.28;101818.22;5000900;28;20157;-78
2022/03/13 10:45:36;;;;;;;13.50;6.85;;;;;;;7.74;33.67;101818.88;4999348;28;20070;-77
2022/03/13 10:48:14;;;;;;;11.70;6.32;;;;;;;7.71;34.65;101819.94;4999121;28;20030;-76
2022/03/13 10:50:54;;;;;;;11.18;6.78;;;;;;;7.79;35.12;101817.63;5016103;28;20038;-77
2022/03/13 10:53:21;;;;;;;12.80;6.07;;;;;;;8.06;34.22;101814.13;4995166;28;20144;-77
2022/03/13 10:56:07;;;;;;;10.52;6.10;;;;;;;7.95;32.89;101814.84;4993489;28;20034;-74
2022/03/13 10:58:38;;;;;;;10.55;6.57;;;;;;;7.85;33.52;101803.31;4980350;28;20096;-77
2022/03/13 11:01:09;;;;;;;10.80;6.68;;;;;;;8.06;33.12;101794.97;4961804;28;20038;-78
2022/03/13 11:03:37;;;;;;;12.05;6.13;;;;;;;8.07;33.38;101805.34;4963413;28;20497;-78
2022/03/13 11:06:07;;;;;;;12.77;6.40;;;;;;;8.23;33.08;101806.91;4985436;28;20049;-78
2022/03/13 11:08:33;;;;;;;12.40;6.22;;;;;;;8.39;33.90;101795.28;4981868;28;20279;-78
2022/03/13 11:10:58;;;;;;;10.57;6.75;;;;;;;8.49;33.29;101792.06;4984111;28;20045;-77
2022/03/13 11:13:28;;;;;;;10.05;6.55;;;;;;;8.72;34.47;101800.91;4999283;28;20030;-77
2022/03/13 11:15:58;;;;;;;11.15;6.25;;;;;;;8.88;33.78;101805.88;4980218;28;20042;-78
2022/03/13 11:18:33;;;;;;;11.15;6.55;;;;;;;8.83;33.89;101797.53;4982479;28;20034;-78
2022/03/13 11:21:00;;;;;;;11.88;6.38;;;;;;;8.73;32.76;101797.34;4981955;28;20034;-78
2022/03/13 11:23:33;;;;;;;11.05;6.78;;;;;;;8.94;33.00;101797.59;5000702;28;20061;-77